sensor_id;sensor_type;location;lat;lon;timestamp;P1;durP1;ratioP1;P2;durP2;ratioP2
67798;SDS011;54596;43.216;27.904;2023-12-14T00:01:56;40.35;;;32.53;;
67798;SDS011;54596;43.216;27.904;2023-12-14T00:04:22;41.80;;;31.83;;
67798;SDS011;54596;43.216;27.904;2023-12-14T00:06:47;36.60;;;29.25;;
67798;SDS011;54596;43.216;27.904;2023-12-14T00:09:13;39.00;;;28.73;;
67798;SDS011;54596;43.216;27.904;2023-12-14T00:11:39;35.90;;;27.92;;
67798;SDS011;54596;43.216;27.904;2023-12-14T00:14:04;36.22;;;26.58;;
67798;SDS011;54596;43.216;27.904;2023-12-14T00:16:30;36.00;;;27.60;;
67798;SDS011;54596;43.216;27.904;2023-12-14T00:18:56;37.65;;;28.20;;
67798;SDS011;54596;43.216;27.904;2023-12-14T00:21:21;38.72;;;28.58;;
67798;SDS011;54596;43.216;27.904;2023-12-14T00:23:47;38.85;;;29.73;;
67798;SDS011;54596;43.216;27.904;2023-12-14T00:26:12;41.30;;;29.48;;
67798;SDS011;54596;43.216;27.904;2023-12-14T00:28:38;37.38;;;29.00;;
67798;SDS011;54596;43.216;27.904;2023-12-14T00:31:04;37.33;;;28.98;;
67798;SDS011;54596;43.216;27.904;2023-12-14T00:33:29;39.42;;;29.38;;
67798;SDS011;54596;43.216;27.904;2023-12-14T00:35:55;36.75;;;28.40;;
67798;SDS011;54596;43.216;27.904;2023-12-14T00:38:20;38.22;;;29.30;;
67798;SDS011;54596;43.216;27.904;2023-12-14T00:40:46;36.30;;;28.70;;
67798;SDS011;54596;43.216;27.904;2023-12-14T00:43:11;35.20;;;27.23;;
67798;SDS011;54596;43.216;27.904;2023-12-14T00:45:37;37.17;;;27.60;;
67798;SDS011;54596;43.216;27.904;2023-12-14T00:48:03;37.10;;;28.30;;
67798;SDS011;54596;43.216;27.904;2023-12-14T00:50:28;34.60;;;28.15;;
67798;SDS011;54596;43.216;27.904;2023-12-14T00:52:54;37.30;;;28.55;;
67798;SDS011;54596;43.216;27.904;2023-12-14T00:55:19;37.90;;;28.33;;
67798;SDS011;54596;43.216;27.904;2023-12-14T00:57:45;35.78;;;27.00;;
67798;SDS011;54596;43.216;27.904;2023-12-14T01:00:11;34.67;;;26.17;;
67798;SDS011;54596;43.216;27.904;2023-12-14T01:02:37;37.70;;;27.02;;
67798;SDS011;54596;43.216;27.904;2023-12-14T01:05:03;35.63;;;27.83;;
67798;SDS011;54596;43.216;27.904;2023-12-14T01:07:29;34.97;;;26.35;;
67798;SDS011;54596;43.216;27.904;2023-12-14T01:09:55;36.85;;;26.83;;
67798;SDS011;54596;43.216;27.904;2023-12-14T01:12:20;36.70;;;28.63;;
67798;SDS011;54596;43.216;27.904;2023-12-14T01:14:46;39.38;;;28.33;;
67798;SDS011;54596;43.216;27.904;2023-12-14T01:17:11;37.85;;;28.42;;
67798;SDS011;54596;43.216;27.904;2023-12-14T01:19:41;36.17;;;27.20;;
67798;SDS011;54596;43.216;27.904;2023-12-14T01:22:07;35.97;;;27.88;;
67798;SDS011;54596;43.216;27.904;2023-12-14T01:24:32;36.33;;;28.30;;
67798;SDS011;54596;43.216;27.904;2023-12-14T01:26:58;35.65;;;27.77;;
67798;SDS011;54596;43.216;27.904;2023-12-14T01:29:24;37.67;;;28.50;;
67798;SDS011;54596;43.216;27.904;2023-12-14T01:31:49;37.75;;;27.20;;
67798;SDS011;54596;43.216;27.904;2023-12-14T01:34:15;34.72;;;26.77;;
67798;SDS011;54596;43.216;27.904;2023-12-14T01:36:41;37.35;;;27.80;;
67798;SDS011;54596;43.216;27.904;2023-12-14T01:39:07;37.83;;;28.60;;
67798;SDS011;54596;43.216;27.904;2023-12-14T01:41:32;35.90;;;28.35;;
67798;SDS011;54596;43.216;27.904;2023-12-14T01:43:58;37.30;;;27.17;;
67798;SDS011;54596;43.216;27.904;2023-12-14T01:46:24;38.53;;;27.90;;
67798;SDS011;54596;43.216;27.904;2023-12-14T01:48:49;36.53;;;26.83;;
67798;SDS011;54596;43.216;27.904;2023-12-14T01:51:17;38.05;;;27.35;;
67798;SDS011;54596;43.216;27.904;2023-12-14T01:53:42;34.53;;;26.08;;
67798;SDS011;54596;43.216;27.904;2023-12-14T01:56:08;31.88;;;23.58;;
67798;SDS011;54596;43.216;27.904;2023-12-14T01:58:34;34.55;;;25.05;;
67798;SDS011;54596;43.216;27.904;2023-12-14T02:03:47;37.92;;;28.90;;
67798;SDS011;54596;43.216;27.904;2023-12-14T02:06:15;37.03;;;28.42;;
67798;SDS011;54596;43.216;27.904;2023-12-14T02:08:40;41.53;;;29.48;;
67798;SDS011;54596;43.216;27.904;2023-12-14T02:11:06;48.45;;;35.53;;
67798;SDS011;54596;43.216;27.904;2023-12-14T02:13:32;50.22;;;36.67;;
67798;SDS011;54596;43.216;27.904;2023-12-14T02:15:58;51.47;;;35.67;;
67798;SDS011;54596;43.216;27.904;2023-12-14T02:18:23;50.28;;;35.35;;
67798;SDS011;54596;43.216;27.904;2023-12-14T02:20:49;50.97;;;37.22;;
67798;SDS011;54596;43.216;27.904;2023-12-14T02:23:14;54.47;;;39.42;;
67798;SDS011;54596;43.216;27.904;2023-12-14T02:25:40;55.90;;;40.60;;
67798;SDS011;54596;43.216;27.904;2023-12-14T02:28:05;56.50;;;39.05;;
67798;SDS011;54596;43.216;27.904;2023-12-14T02:30:31;57.42;;;40.03;;
67798;SDS011;54596;43.216;27.904;2023-12-14T02:32:56;56.88;;;40.83;;
67798;SDS011;54596;43.216;27.904;2023-12-14T02:35:22;60.72;;;44.30;;
67798;SDS011;54596;43.216;27.904;2023-12-14T02:37:48;60.40;;;42.53;;
67798;SDS011;54596;43.216;27.904;2023-12-14T02:40:13;63.17;;;44.40;;
67798;SDS011;54596;43.216;27.904;2023-12-14T02:42:39;62.03;;;45.50;;
67798;SDS011;54596;43.216;27.904;2023-12-14T02:45:05;61.97;;;45.47;;
67798;SDS011;54596;43.216;27.904;2023-12-14T02:47:32;60.65;;;43.40;;
67798;SDS011;54596;43.216;27.904;2023-12-14T02:49:58;62.83;;;45.30;;
67798;SDS011;54596;43.216;27.904;2023-12-14T02:52:23;55.63;;;42.05;;
67798;SDS011;54596;43.216;27.904;2023-12-14T02:54:49;58.63;;;42.63;;
67798;SDS011;54596;43.216;27.904;2023-12-14T02:57:15;57.10;;;42.00;;
67798;SDS011;54596;43.216;27.904;2023-12-14T02:59:40;56.90;;;42.78;;
67798;SDS011;54596;43.216;27.904;2023-12-14T03:02:06;59.58;;;42.22;;
67798;SDS011;54596;43.216;27.904;2023-12-14T03:04:31;56.17;;;40.85;;
67798;SDS011;54596;43.216;27.904;2023-12-14T03:06:57;57.80;;;41.63;;
67798;SDS011;54596;43.216;27.904;2023-12-14T03:09:27;55.42;;;40.10;;
67798;SDS011;54596;43.216;27.904;2023-12-14T03:11:53;51.65;;;39.13;;
67798;SDS011;54596;43.216;27.904;2023-12-14T03:14:19;52.42;;;39.70;;
67798;SDS011;54596;43.216;27.904;2023-12-14T03:16:44;55.83;;;39.30;;
67798;SDS011;54596;43.216;27.904;2023-12-14T03:19:10;53.33;;;38.45;;
67798;SDS011;54596;43.216;27.904;2023-12-14T03:21:35;49.83;;;38.53;;
67798;SDS011;54596;43.216;27.904;2023-12-14T03:24:01;51.80;;;37.58;;
67798;SDS011;54596;43.216;27.904;2023-12-14T03:26:27;51.70;;;39.85;;
67798;SDS011;54596;43.216;27.904;2023-12-14T03:28:53;55.47;;;40.70;;
67798;SDS011;54596;43.216;27.904;2023-12-14T03:31:18;56.25;;;41.38;;
67798;SDS011;54596;43.216;27.904;2023-12-14T03:33:44;53.58;;;41.55;;
67798;SDS011;54596;43.216;27.904;2023-12-14T03:36:10;55.45;;;40.03;;
67798;SDS011;54596;43.216;27.904;2023-12-14T03:38:36;56.67;;;41.30;;
67798;SDS011;54596;43.216;27.904;2023-12-14T03:41:02;50.03;;;39.45;;
67798;SDS011;54596;43.216;27.904;2023-12-14T03:43:27;50.33;;;39.10;;
67798;SDS011;54596;43.216;27.904;2023-12-14T03:45:53;56.78;;;41.30;;
67798;SDS011;54596;43.216;27.904;2023-12-14T03:48:19;56.35;;;40.05;;
67798;SDS011;54596;43.216;27.904;2023-12-14T03:50:44;50.28;;;37.60;;
67798;SDS011;54596;43.216;27.904;2023-12-14T03:53:10;47.72;;;37.35;;
67798;SDS011;54596;43.216;27.904;2023-12-14T03:55:35;49.47;;;37.97;;
67798;SDS011;54596;43.216;27.904;2023-12-14T03:58:01;48.47;;;36.97;;
67798;SDS011;54596;43.216;27.904;2023-12-14T04:00:26;48.97;;;36.95;;
67798;SDS011;54596;43.216;27.904;2023-12-14T04:02:52;44.72;;;34.13;;
67798;SDS011;54596;43.216;27.904;2023-12-14T04:05:17;45.25;;;32.38;;
67798;SDS011;54596;43.216;27.904;2023-12-14T04:07:43;53.60;;;41.15;;
67798;SDS011;54596;43.216;27.904;2023-12-14T04:10:09;51.33;;;35.00;;
67798;SDS011;54596;43.216;27.904;2023-12-14T04:12:36;69.05;;;49.33;;
67798;SDS011;54596;43.216;27.904;2023-12-14T04:15:02;42.03;;;32.10;;
67798;SDS011;54596;43.216;27.904;2023-12-14T04:17:28;43.50;;;31.58;;
67798;SDS011;54596;43.216;27.904;2023-12-14T04:19:55;56.00;;;41.00;;
67798;SDS011;54596;43.216;27.904;2023-12-14T04:22:21;45.75;;;35.28;;
67798;SDS011;54596;43.216;27.904;2023-12-14T04:24:47;41.97;;;31.75;;
67798;SDS011;54596;43.216;27.904;2023-12-14T04:27:12;52.90;;;40.88;;
67798;SDS011;54596;43.216;27.904;2023-12-14T04:29:38;54.40;;;40.60;;
67798;SDS011;54596;43.216;27.904;2023-12-14T04:32:04;41.15;;;32.70;;
67798;SDS011;54596;43.216;27.904;2023-12-14T04:34:30;47.15;;;36.72;;
67798;SDS011;54596;43.216;27.904;2023-12-14T04:36:55;44.78;;;34.35;;
67798;SDS011;54596;43.216;27.904;2023-12-14T04:39:25;40.10;;;30.52;;
67798;SDS011;54596;43.216;27.904;2023-12-14T04:41:51;36.97;;;27.52;;
67798;SDS011;54596;43.216;27.904;2023-12-14T04:44:20;35.40;;;26.70;;
67798;SDS011;54596;43.216;27.904;2023-12-14T04:46:46;34.35;;;26.58;;
67798;SDS011;54596;43.216;27.904;2023-12-14T04:49:12;40.75;;;29.38;;
67798;SDS011;54596;43.216;27.904;2023-12-14T04:51:38;37.92;;;26.90;;
67798;SDS011;54596;43.216;27.904;2023-12-14T04:54:04;39.53;;;30.35;;
67798;SDS011;54596;43.216;27.904;2023-12-14T04:56:29;37.78;;;27.90;;
67798;SDS011;54596;43.216;27.904;2023-12-14T04:58:55;42.80;;;34.22;;
67798;SDS011;54596;43.216;27.904;2023-12-14T05:01:20;40.88;;;32.22;;
67798;SDS011;54596;43.216;27.904;2023-12-14T05:03:46;40.38;;;32.10;;
67798;SDS011;54596;43.216;27.904;2023-12-14T05:06:11;40.65;;;32.00;;
67798;SDS011;54596;43.216;27.904;2023-12-14T05:08:37;41.17;;;31.63;;
67798;SDS011;54596;43.216;27.904;2023-12-14T05:11:03;45.47;;;35.17;;
67798;SDS011;54596;43.216;27.904;2023-12-14T05:13:29;48.88;;;34.83;;
67798;SDS011;54596;43.216;27.904;2023-12-14T05:15:55;40.35;;;30.35;;
67798;SDS011;54596;43.216;27.904;2023-12-14T05:18:22;47.78;;;36.30;;
67798;SDS011;54596;43.216;27.904;2023-12-14T05:20:48;43.67;;;32.10;;
67798;SDS011;54596;43.216;27.904;2023-12-14T05:23:14;44.47;;;32.33;;
67798;SDS011;54596;43.216;27.904;2023-12-14T05:25:39;48.70;;;37.33;;
67798;SDS011;54596;43.216;27.904;2023-12-14T05:28:05;43.85;;;32.65;;
67798;SDS011;54596;43.216;27.904;2023-12-14T05:30:31;59.03;;;38.50;;
67798;SDS011;54596;43.216;27.904;2023-12-14T05:32:56;41.92;;;31.20;;
67798;SDS011;54596;43.216;27.904;2023-12-14T05:35:22;48.60;;;34.88;;
67798;SDS011;54596;43.216;27.904;2023-12-14T05:37:48;43.80;;;32.67;;
67798;SDS011;54596;43.216;27.904;2023-12-14T05:40:14;45.72;;;33.75;;
67798;SDS011;54596;43.216;27.904;2023-12-14T05:42:39;70.75;;;44.72;;
67798;SDS011;54596;43.216;27.904;2023-12-14T05:45:06;52.85;;;39.47;;
67798;SDS011;54596;43.216;27.904;2023-12-14T05:47:32;56.97;;;40.47;;
67798;SDS011;54596;43.216;27.904;2023-12-14T05:49:59;54.33;;;37.85;;
67798;SDS011;54596;43.216;27.904;2023-12-14T05:52:26;52.78;;;38.75;;
67798;SDS011;54596;43.216;27.904;2023-12-14T05:54:53;52.50;;;35.22;;
67798;SDS011;54596;43.216;27.904;2023-12-14T05:57:19;49.78;;;35.90;;
67798;SDS011;54596;43.216;27.904;2023-12-14T05:59:44;44.88;;;34.80;;
67798;SDS011;54596;43.216;27.904;2023-12-14T06:02:10;42.35;;;32.92;;
67798;SDS011;54596;43.216;27.904;2023-12-14T06:04:35;44.95;;;33.05;;
67798;SDS011;54596;43.216;27.904;2023-12-14T06:07:01;36.33;;;26.27;;
67798;SDS011;54596;43.216;27.904;2023-12-14T06:09:27;42.45;;;30.63;;
67798;SDS011;54596;43.216;27.904;2023-12-14T06:12:01;37.08;;;26.83;;
67798;SDS011;54596;43.216;27.904;2023-12-14T06:14:43;38.63;;;29.25;;
67798;SDS011;54596;43.216;27.904;2023-12-14T06:17:12;56.20;;;42.00;;
67798;SDS011;54596;43.216;27.904;2023-12-14T06:19:37;58.08;;;41.28;;
67798;SDS011;54596;43.216;27.904;2023-12-14T06:22:03;59.38;;;44.92;;
67798;SDS011;54596;43.216;27.904;2023-12-14T06:24:29;67.15;;;51.05;;
67798;SDS011;54596;43.216;27.904;2023-12-14T06:26:54;68.57;;;53.17;;
67798;SDS011;54596;43.216;27.904;2023-12-14T06:29:20;62.88;;;47.95;;
67798;SDS011;54596;43.216;27.904;2023-12-14T06:31:45;62.78;;;47.75;;
67798;SDS011;54596;43.216;27.904;2023-12-14T06:34:11;66.22;;;49.13;;
67798;SDS011;54596;43.216;27.904;2023-12-14T06:36:40;60.65;;;44.15;;
67798;SDS011;54596;43.216;27.904;2023-12-14T06:39:07;56.65;;;43.92;;
67798;SDS011;54596;43.216;27.904;2023-12-14T06:41:33;59.97;;;43.47;;
67798;SDS011;54596;43.216;27.904;2023-12-14T06:43:58;58.78;;;43.42;;
67798;SDS011;54596;43.216;27.904;2023-12-14T06:46:24;58.60;;;44.33;;
67798;SDS011;54596;43.216;27.904;2023-12-14T06:48:50;62.88;;;46.95;;
67798;SDS011;54596;43.216;27.904;2023-12-14T06:51:15;58.22;;;45.13;;
67798;SDS011;54596;43.216;27.904;2023-12-14T06:53:42;65.07;;;46.28;;
67798;SDS011;54596;43.216;27.904;2023-12-14T06:56:08;59.75;;;46.05;;
67798;SDS011;54596;43.216;27.904;2023-12-14T06:58:36;61.20;;;45.13;;
67798;SDS011;54596;43.216;27.904;2023-12-14T07:01:02;54.28;;;42.25;;
67798;SDS011;54596;43.216;27.904;2023-12-14T07:03:28;62.42;;;45.55;;
67798;SDS011;54596;43.216;27.904;2023-12-14T07:05:53;61.47;;;45.00;;
67798;SDS011;54596;43.216;27.904;2023-12-14T07:08:19;62.00;;;45.72;;
67798;SDS011;54596;43.216;27.904;2023-12-14T07:10:44;58.75;;;44.63;;
67798;SDS011;54596;43.216;27.904;2023-12-14T07:13:10;58.22;;;43.38;;
67798;SDS011;54596;43.216;27.904;2023-12-14T07:15:36;61.53;;;43.83;;
67798;SDS011;54596;43.216;27.904;2023-12-14T07:18:03;54.97;;;41.40;;
67798;SDS011;54596;43.216;27.904;2023-12-14T07:20:29;55.45;;;41.65;;
67798;SDS011;54596;43.216;27.904;2023-12-14T07:22:54;55.97;;;42.40;;
67798;SDS011;54596;43.216;27.904;2023-12-14T07:25:20;59.97;;;44.15;;
67798;SDS011;54596;43.216;27.904;2023-12-14T07:27:45;57.13;;;44.67;;
67798;SDS011;54596;43.216;27.904;2023-12-14T07:30:14;60.88;;;42.83;;
67798;SDS011;54596;43.216;27.904;2023-12-14T07:32:39;52.78;;;42.78;;
67798;SDS011;54596;43.216;27.904;2023-12-14T07:35:05;71.60;;;51.33;;
67798;SDS011;54596;43.216;27.904;2023-12-14T07:37:31;61.45;;;48.42;;
67798;SDS011;54596;43.216;27.904;2023-12-14T07:39:57;66.13;;;49.17;;
67798;SDS011;54596;43.216;27.904;2023-12-14T07:42:25;61.28;;;46.28;;
67798;SDS011;54596;43.216;27.904;2023-12-14T07:44:51;61.25;;;47.33;;
67798;SDS011;54596;43.216;27.904;2023-12-14T07:47:17;61.22;;;44.97;;
67798;SDS011;54596;43.216;27.904;2023-12-14T07:49:42;54.38;;;41.13;;
67798;SDS011;54596;43.216;27.904;2023-12-14T07:52:08;61.15;;;43.40;;
67798;SDS011;54596;43.216;27.904;2023-12-14T07:54:34;59.50;;;43.75;;
67798;SDS011;54596;43.216;27.904;2023-12-14T07:57:00;55.63;;;42.47;;
67798;SDS011;54596;43.216;27.904;2023-12-14T07:59:26;59.10;;;43.85;;
67798;SDS011;54596;43.216;27.904;2023-12-14T08:01:52;56.78;;;43.30;;
67798;SDS011;54596;43.216;27.904;2023-12-14T08:04:17;60.05;;;43.80;;
67798;SDS011;54596;43.216;27.904;2023-12-14T08:06:43;56.78;;;43.83;;
67798;SDS011;54596;43.216;27.904;2023-12-14T08:09:08;56.17;;;42.38;;
67798;SDS011;54596;43.216;27.904;2023-12-14T08:11:34;55.38;;;42.80;;
67798;SDS011;54596;43.216;27.904;2023-12-14T08:14:01;59.40;;;42.78;;
67798;SDS011;54596;43.216;27.904;2023-12-14T08:16:27;57.47;;;43.35;;
67798;SDS011;54596;43.216;27.904;2023-12-14T08:18:53;56.15;;;42.10;;
67798;SDS011;54596;43.216;27.904;2023-12-14T08:21:19;57.22;;;43.35;;
67798;SDS011;54596;43.216;27.904;2023-12-14T08:23:44;55.83;;;43.30;;
67798;SDS011;54596;43.216;27.904;2023-12-14T08:26:10;57.67;;;43.80;;
67798;SDS011;54596;43.216;27.904;2023-12-14T08:28:38;58.65;;;45.90;;
67798;SDS011;54596;43.216;27.904;2023-12-14T08:31:04;58.80;;;42.20;;
67798;SDS011;54596;43.216;27.904;2023-12-14T08:33:30;66.00;;;45.45;;
67798;SDS011;54596;43.216;27.904;2023-12-14T08:35:56;65.60;;;46.55;;
67798;SDS011;54596;43.216;27.904;2023-12-14T08:38:22;60.80;;;44.75;;
67798;SDS011;54596;43.216;27.904;2023-12-14T08:40:47;70.10;;;45.72;;
67798;SDS011;54596;43.216;27.904;2023-12-14T08:43:13;80.93;;;45.67;;
67798;SDS011;54596;43.216;27.904;2023-12-14T08:45:39;82.38;;;50.17;;
67798;SDS011;54596;43.216;27.904;2023-12-14T08:48:04;64.15;;;42.50;;
67798;SDS011;54596;43.216;27.904;2023-12-14T08:50:30;61.15;;;43.35;;
67798;SDS011;54596;43.216;27.904;2023-12-14T08:52:56;62.70;;;44.40;;
67798;SDS011;54596;43.216;27.904;2023-12-14T08:55:24;63.97;;;45.15;;
67798;SDS011;54596;43.216;27.904;2023-12-14T08:57:50;81.10;;;49.88;;
67798;SDS011;54596;43.216;27.904;2023-12-14T09:00:16;82.78;;;53.83;;
67798;SDS011;54596;43.216;27.904;2023-12-14T09:02:43;82.45;;;52.67;;
67798;SDS011;54596;43.216;27.904;2023-12-14T09:05:14;70.60;;;49.20;;
67798;SDS011;54596;43.216;27.904;2023-12-14T09:07:45;82.28;;;49.75;;
67798;SDS011;54596;43.216;27.904;2023-12-14T09:10:11;78.10;;;47.97;;
67798;SDS011;54596;43.216;27.904;2023-12-14T09:12:37;77.47;;;41.35;;
67798;SDS011;54596;43.216;27.904;2023-12-14T09:15:03;74.88;;;39.60;;
67798;SDS011;54596;43.216;27.904;2023-12-14T09:17:29;65.07;;;36.05;;
67798;SDS011;54596;43.216;27.904;2023-12-14T09:19:58;68.60;;;36.80;;
67798;SDS011;54596;43.216;27.904;2023-12-14T09:22:25;64.25;;;36.55;;
67798;SDS011;54596;43.216;27.904;2023-12-14T09:24:51;66.57;;;34.40;;
67798;SDS011;54596;43.216;27.904;2023-12-14T09:27:17;75.50;;;38.45;;
67798;SDS011;54596;43.216;27.904;2023-12-14T09:29:42;86.07;;;36.10;;
67798;SDS011;54596;43.216;27.904;2023-12-14T09:32:08;64.60;;;30.80;;
67798;SDS011;54596;43.216;27.904;2023-12-14T09:34:34;72.38;;;30.10;;
67798;SDS011;54596;43.216;27.904;2023-12-14T09:37:00;65.25;;;28.45;;
67798;SDS011;54596;43.216;27.904;2023-12-14T09:39:25;75.35;;;31.23;;
67798;SDS011;54596;43.216;27.904;2023-12-14T09:41:53;82.10;;;31.95;;
67798;SDS011;54596;43.216;27.904;2023-12-14T09:44:30;49.65;;;22.60;;
67798;SDS011;54596;43.216;27.904;2023-12-14T09:47:00;72.45;;;26.23;;
67798;SDS011;54596;43.216;27.904;2023-12-14T09:49:27;66.95;;;21.92;;
67798;SDS011;54596;43.216;27.904;2023-12-14T09:51:55;52.00;;;20.48;;
67798;SDS011;54596;43.216;27.904;2023-12-14T09:54:24;39.63;;;17.52;;
67798;SDS011;54596;43.216;27.904;2023-12-14T09:56:53;47.03;;;21.05;;
67798;SDS011;54596;43.216;27.904;2023-12-14T09:59:19;42.60;;;22.60;;
67798;SDS011;54596;43.216;27.904;2023-12-14T10:01:45;50.17;;;24.85;;
67798;SDS011;54596;43.216;27.904;2023-12-14T10:04:12;50.75;;;27.58;;
67798;SDS011;54596;43.216;27.904;2023-12-14T10:06:40;53.78;;;25.77;;
67798;SDS011;54596;43.216;27.904;2023-12-14T10:09:07;56.33;;;30.50;;
67798;SDS011;54596;43.216;27.904;2023-12-14T10:11:35;55.60;;;31.83;;
67798;SDS011;54596;43.216;27.904;2023-12-14T10:14:02;72.18;;;39.75;;
67798;SDS011;54596;43.216;27.904;2023-12-14T10:16:32;62.88;;;36.60;;
67798;SDS011;54596;43.216;27.904;2023-12-14T10:18:59;69.35;;;36.20;;
67798;SDS011;54596;43.216;27.904;2023-12-14T10:21:28;49.58;;;29.02;;
67798;SDS011;54596;43.216;27.904;2023-12-14T10:23:58;47.17;;;27.33;;
67798;SDS011;54596;43.216;27.904;2023-12-14T10:26:24;45.10;;;24.92;;
67798;SDS011;54596;43.216;27.904;2023-12-14T10:28:51;46.70;;;25.90;;
67798;SDS011;54596;43.216;27.904;2023-12-14T10:31:19;34.92;;;16.92;;
67798;SDS011;54596;43.216;27.904;2023-12-14T10:33:46;38.90;;;17.25;;
67798;SDS011;54596;43.216;27.904;2023-12-14T10:36:19;39.90;;;19.33;;
67798;SDS011;54596;43.216;27.904;2023-12-14T10:38:48;39.78;;;16.83;;
67798;SDS011;54596;43.216;27.904;2023-12-14T10:41:16;40.28;;;16.92;;
67798;SDS011;54596;43.216;27.904;2023-12-14T10:43:43;35.40;;;14.88;;
67798;SDS011;54596;43.216;27.904;2023-12-14T10:46:09;31.38;;;16.27;;
67798;SDS011;54596;43.216;27.904;2023-12-14T10:48:36;33.67;;;14.18;;
67798;SDS011;54596;43.216;27.904;2023-12-14T10:51:02;27.63;;;12.40;;
67798;SDS011;54596;43.216;27.904;2023-12-14T10:53:29;32.28;;;11.15;;
67798;SDS011;54596;43.216;27.904;2023-12-14T10:55:55;25.75;;;11.18;;
67798;SDS011;54596;43.216;27.904;2023-12-14T10:58:24;24.90;;;10.68;;
67798;SDS011;54596;43.216;27.904;2023-12-14T11:00:59;38.83;;;13.32;;
67798;SDS011;54596;43.216;27.904;2023-12-14T11:03:32;31.67;;;12.55;;
67798;SDS011;54596;43.216;27.904;2023-12-14T11:05:59;30.05;;;11.15;;
67798;SDS011;54596;43.216;27.904;2023-12-14T11:08:25;29.88;;;10.73;;
67798;SDS011;54596;43.216;27.904;2023-12-14T11:10:54;24.17;;;8.65;;
67798;SDS011;54596;43.216;27.904;2023-12-14T11:13:25;20.88;;;8.43;;
67798;SDS011;54596;43.216;27.904;2023-12-14T11:15:51;23.55;;;8.80;;
67798;SDS011;54596;43.216;27.904;2023-12-14T11:23:12;25.77;;;11.70;;
67798;SDS011;54596;43.216;27.904;2023-12-14T11:25:47;19.58;;;9.32;;
67798;SDS011;54596;43.216;27.904;2023-12-14T11:28:14;20.05;;;7.40;;
67798;SDS011;54596;43.216;27.904;2023-12-14T11:30:40;16.08;;;6.43;;
67798;SDS011;54596;43.216;27.904;2023-12-14T11:33:10;16.90;;;5.45;;
67798;SDS011;54596;43.216;27.904;2023-12-14T11:35:37;17.33;;;5.90;;
67798;SDS011;54596;43.216;27.904;2023-12-14T11:38:04;14.45;;;5.88;;
67798;SDS011;54596;43.216;27.904;2023-12-14T11:40:37;16.40;;;6.88;;
67798;SDS011;54596;43.216;27.904;2023-12-14T11:43:07;16.88;;;6.78;;
67798;SDS011;54596;43.216;27.904;2023-12-14T11:45:37;16.02;;;6.22;;
67798;SDS011;54596;43.216;27.904;2023-12-14T11:48:04;17.25;;;6.15;;
67798;SDS011;54596;43.216;27.904;2023-12-14T11:50:33;19.27;;;6.50;;
67798;SDS011;54596;43.216;27.904;2023-12-14T11:53:03;16.05;;;6.18;;
67798;SDS011;54596;43.216;27.904;2023-12-14T11:55:29;18.45;;;5.95;;
67798;SDS011;54596;43.216;27.904;2023-12-14T11:57:56;19.27;;;5.50;;
67798;SDS011;54596;43.216;27.904;2023-12-14T12:00:28;18.70;;;5.30;;
67798;SDS011;54596;43.216;27.904;2023-12-14T12:05:40;17.67;;;6.33;;
67798;SDS011;54596;43.216;27.904;2023-12-14T12:08:10;14.15;;;5.70;;
67798;SDS011;54596;43.216;27.904;2023-12-14T12:10:37;16.73;;;6.18;;
67798;SDS011;54596;43.216;27.904;2023-12-14T12:13:04;18.45;;;7.10;;
67798;SDS011;54596;43.216;27.904;2023-12-14T12:15:32;23.70;;;7.43;;
67798;SDS011;54596;43.216;27.904;2023-12-14T12:18:02;15.55;;;5.95;;
67798;SDS011;54596;43.216;27.904;2023-12-14T12:20:29;18.65;;;6.63;;
67798;SDS011;54596;43.216;27.904;2023-12-14T12:22:54;21.02;;;7.40;;
67798;SDS011;54596;43.216;27.904;2023-12-14T12:25:20;22.17;;;10.35;;
67798;SDS011;54596;43.216;27.904;2023-12-14T12:27:46;19.45;;;7.22;;
67798;SDS011;54596;43.216;27.904;2023-12-14T12:30:12;17.98;;;8.77;;
67798;SDS011;54596;43.216;27.904;2023-12-14T12:32:38;18.95;;;8.13;;
67798;SDS011;54596;43.216;27.904;2023-12-14T12:35:04;18.73;;;7.82;;
67798;SDS011;54596;43.216;27.904;2023-12-14T12:37:30;20.40;;;7.05;;
67798;SDS011;54596;43.216;27.904;2023-12-14T12:39:56;20.40;;;7.95;;
67798;SDS011;54596;43.216;27.904;2023-12-14T12:42:21;22.42;;;8.77;;
67798;SDS011;54596;43.216;27.904;2023-12-14T12:44:47;19.40;;;7.65;;
67798;SDS011;54596;43.216;27.904;2023-12-14T12:47:12;17.13;;;7.10;;
67798;SDS011;54596;43.216;27.904;2023-12-14T12:49:38;20.45;;;7.78;;
67798;SDS011;54596;43.216;27.904;2023-12-14T12:52:04;19.40;;;8.05;;
67798;SDS011;54596;43.216;27.904;2023-12-14T12:54:31;19.75;;;8.43;;
67798;SDS011;54596;43.216;27.904;2023-12-14T12:56:57;22.10;;;9.38;;
67798;SDS011;54596;43.216;27.904;2023-12-14T12:59:23;22.27;;;8.77;;
67798;SDS011;54596;43.216;27.904;2023-12-14T13:01:49;20.17;;;9.45;;
67798;SDS011;54596;43.216;27.904;2023-12-14T13:04:21;20.52;;;7.95;;
67798;SDS011;54596;43.216;27.904;2023-12-14T13:06:47;18.33;;;7.72;;
67798;SDS011;54596;43.216;27.904;2023-12-14T13:09:16;16.23;;;7.43;;
67798;SDS011;54596;43.216;27.904;2023-12-14T13:11:44;17.08;;;7.93;;
67798;SDS011;54596;43.216;27.904;2023-12-14T13:14:10;16.17;;;8.73;;
67798;SDS011;54596;43.216;27.904;2023-12-14T13:16:36;20.98;;;7.13;;
67798;SDS011;54596;43.216;27.904;2023-12-14T13:19:03;20.63;;;8.40;;
67798;SDS011;54596;43.216;27.904;2023-12-14T13:21:29;18.80;;;7.50;;
67798;SDS011;54596;43.216;27.904;2023-12-14T13:23:56;15.48;;;6.90;;
67798;SDS011;54596;43.216;27.904;2023-12-14T13:26:23;16.77;;;7.38;;
67798;SDS011;54596;43.216;27.904;2023-12-14T13:28:51;18.38;;;6.70;;
67798;SDS011;54596;43.216;27.904;2023-12-14T13:31:17;13.90;;;6.72;;
67798;SDS011;54596;43.216;27.904;2023-12-14T13:33:44;17.25;;;6.10;;
67798;SDS011;54596;43.216;27.904;2023-12-14T13:36:11;16.65;;;5.57;;
67798;SDS011;54596;43.216;27.904;2023-12-14T13:38:37;16.20;;;5.30;;
67798;SDS011;54596;43.216;27.904;2023-12-14T13:41:03;14.43;;;5.63;;
67798;SDS011;54596;43.216;27.904;2023-12-14T13:43:29;17.55;;;5.55;;
67798;SDS011;54596;43.216;27.904;2023-12-14T13:45:55;15.77;;;5.95;;
67798;SDS011;54596;43.216;27.904;2023-12-14T13:48:24;20.85;;;8.18;;
67798;SDS011;54596;43.216;27.904;2023-12-14T13:50:50;21.40;;;9.25;;
67798;SDS011;54596;43.216;27.904;2023-12-14T13:53:15;27.45;;;11.18;;
67798;SDS011;54596;43.216;27.904;2023-12-14T13:55:41;21.77;;;12.02;;
67798;SDS011;54596;43.216;27.904;2023-12-14T13:58:07;22.83;;;11.20;;
67798;SDS011;54596;43.216;27.904;2023-12-14T14:00:32;20.23;;;10.27;;
67798;SDS011;54596;43.216;27.904;2023-12-14T14:03:00;21.30;;;11.02;;
67798;SDS011;54596;43.216;27.904;2023-12-14T14:05:25;19.52;;;9.18;;
67798;SDS011;54596;43.216;27.904;2023-12-14T14:07:51;21.90;;;9.10;;
67798;SDS011;54596;43.216;27.904;2023-12-14T14:10:17;20.85;;;10.07;;
67798;SDS011;54596;43.216;27.904;2023-12-14T14:12:44;20.52;;;9.60;;
67798;SDS011;54596;43.216;27.904;2023-12-14T14:15:11;27.17;;;10.95;;
67798;SDS011;54596;43.216;27.904;2023-12-14T14:17:36;23.08;;;9.65;;